Van Wert, OH (45891)

5:00 PM EDT on September 17, 2014 (GMT -0400)
N1ICS - Ridge Township, OH | Change Station
CLOSE
Current Station
Personal Weather Station
Location: Van Wert, OH
Elevation: 784 ft
Nearby Weather Stations

Elev 784 ft 40.85 °N, 84.48 °W | Updated 3 seconds ago

Partly Cloudy
Partly Cloudy
66.7 °F
Feels Like 66.7 °F
N
0.0
Wind Variable Wind from WSW
Gusts 7.0 mph

Today
High -- | Low -- °F
--% Chance of Precip.
Yesterday
High -- | Low -- °F
Precip. -- in
7:20 AM 7:44 PM
Waning Crescent, 33% visible
Pressure 29.99 in
Visibility 10.0 miles
Clouds Clear
Dew Point 45 °F
Humidity 46%
Rainfall 0.00 in
Snow Depth Not available.
UV 3 out of 12
Pollen 5.30 out of 12
Air Quality Not available.
Flu Activity Not available.
METAR KAOH 172053Z AUTO 29005KT 10SM CLR 20/08 A2999 RMK AO2 SLP156 T02000083 56014

More Conditions Fewer Conditions

Pressure 29.99 in
Visibility 10.0 miles
Clouds Clear
Dew Point 45 °F
Humidity 46%
Rainfall 0.00 in
Snow Depth Not available.
UV 3 out of 12
Pollen 5.30 out of 12
Air Quality Not available.
Flu Activity Not available.
METAR KAOH 172053Z AUTO 29005KT 10SM CLR 20/08 A2999 RMK AO2 SLP156 T02000083 56014

More Conditions Fewer Conditions

10-Day Weather Forecast

Almanac

Astronomy

Sep. 17, 2014 Rise Set
Actual Time 7:20 AM EDT 7:44 PM EDT
Civil Twilight 6:53 AM EDT 8:11 PM EDT
Nautical Twilight 6:21 AM EDT 8:43 PM EDT
Astronomical Twilight 5:47 AM EDT 9:16 PM EDT
Moon 1:18 AM EDT 3:54 PM EDT
Length of Visible Light 13h 18m
Length of Day
12h 23m
Tomorrow will be 2m 41s shorter.
Waning Crescent, 33% of the Moon is Illuminated
Today
Waning Crescent
Sep 24
New
Oct 1
First Quarter
Oct 8
Full
Oct 15
Last Quarter

Today's Extremes

State Highs State Lows

Community

WunderPhotos

Upload Photos

1,754,166 photos uploaded!

WunderBlogs® & News

Nearby

Snow Depth

Station Depth Elevation
No new snow has been reported.

Earthquake Activity

City Distance Mag. Time & Date
No recent earthquake activity has been reported nearby.
Minimum magnitude displayed is 2.5.

Coastal Water Temperatures

Place Temperature
No Stations Reporting

Nearby Weather Stations